sensor_id;sensor_type;location;lat;lon;timestamp;P1;durP1;ratioP1;P2;durP2;ratioP2
20880;SDS011;10600;53.096;8.802;2023-07-20T00:00:08;4.32;;;3.28;;
20880;SDS011;10600;53.096;8.802;2023-07-20T00:01:09;6.97;;;3.00;;
20880;SDS011;10600;53.096;8.802;2023-07-20T00:02:11;5.07;;;2.88;;
20880;SDS011;10600;53.096;8.802;2023-07-20T00:03:12;4.05;;;3.10;;
20880;SDS011;10600;53.096;8.802;2023-07-20T00:04:16;3.03;;;2.83;;
20880;SDS011;10600;53.096;8.802;2023-07-20T00:05:18;4.07;;;3.15;;
20880;SDS011;10600;53.096;8.802;2023-07-20T00:06:24;3.13;;;2.83;;
20880;SDS011;10600;53.096;8.802;2023-07-20T00:07:27;3.75;;;2.83;;
20880;SDS011;10600;53.096;8.802;2023-07-20T00:08:28;5.53;;;2.72;;
20880;SDS011;10600;53.096;8.802;2023-07-20T00:09:29;5.45;;;2.63;;
20880;SDS011;10600;53.096;8.802;2023-07-20T00:10:30;5.82;;;2.95;;
20880;SDS011;10600;53.096;8.802;2023-07-20T00:11:34;3.50;;;2.28;;
20880;SDS011;10600;53.096;8.802;2023-07-20T00:12:36;5.50;;;2.40;;
20880;SDS011;10600;53.096;8.802;2023-07-20T00:13:37;6.35;;;2.88;;
20880;SDS011;10600;53.096;8.802;2023-07-20T00:14:38;2.90;;;2.60;;
20880;SDS011;10600;53.096;8.802;2023-07-20T00:15:39;3.65;;;2.60;;
20880;SDS011;10600;53.096;8.802;2023-07-20T00:16:40;2.90;;;2.60;;
20880;SDS011;10600;53.096;8.802;2023-07-20T00:17:41;3.60;;;2.45;;
20880;SDS011;10600;53.096;8.802;2023-07-20T00:18:42;3.90;;;2.45;;
20880;SDS011;10600;53.096;8.802;2023-07-20T00:19:43;3.47;;;2.50;;
20880;SDS011;10600;53.096;8.802;2023-07-20T00:20:44;2.83;;;2.33;;
20880;SDS011;10600;53.096;8.802;2023-07-20T00:21:45;2.45;;;2.25;;
20880;SDS011;10600;53.096;8.802;2023-07-20T00:22:46;7.43;;;3.22;;
20880;SDS011;10600;53.096;8.802;2023-07-20T00:23:47;3.05;;;2.22;;
20880;SDS011;10600;53.096;8.802;2023-07-20T00:24:48;2.90;;;2.60;;
20880;SDS011;10600;53.096;8.802;2023-07-20T00:25:49;3.35;;;2.72;;
20880;SDS011;10600;53.096;8.802;2023-07-20T00:26:50;4.47;;;2.60;;
20880;SDS011;10600;53.096;8.802;2023-07-20T00:27:51;2.78;;;2.47;;
20880;SDS011;10600;53.096;8.802;2023-07-20T00:28:53;2.92;;;2.30;;
20880;SDS011;10600;53.096;8.802;2023-07-20T00:29:54;3.25;;;2.53;;
20880;SDS011;10600;53.096;8.802;2023-07-20T00:30:55;3.28;;;2.30;;
20880;SDS011;10600;53.096;8.802;2023-07-20T00:31:56;2.45;;;2.25;;
20880;SDS011;10600;53.096;8.802;2023-07-20T00:32:57;4.07;;;2.30;;
20880;SDS011;10600;53.096;8.802;2023-07-20T00:33:58;2.70;;;2.50;;
20880;SDS011;10600;53.096;8.802;2023-07-20T00:34:59;2.90;;;2.50;;
20880;SDS011;10600;53.096;8.802;2023-07-20T00:36:00;4.35;;;2.90;;
20880;SDS011;10600;53.096;8.802;2023-07-20T00:37:01;4.22;;;2.55;;
20880;SDS011;10600;53.096;8.802;2023-07-20T00:38:02;3.75;;;2.42;;
20880;SDS011;10600;53.096;8.802;2023-07-20T00:39:03;3.85;;;2.78;;
20880;SDS011;10600;53.096;8.802;2023-07-20T00:40:04;4.65;;;2.60;;
20880;SDS011;10600;53.096;8.802;2023-07-20T00:41:05;6.45;;;3.78;;
20880;SDS011;10600;53.096;8.802;2023-07-20T00:42:06;4.63;;;3.00;;
20880;SDS011;10600;53.096;8.802;2023-07-20T00:43:08;6.07;;;4.05;;
20880;SDS011;10600;53.096;8.802;2023-07-20T00:44:09;6.28;;;3.85;;
20880;SDS011;10600;53.096;8.802;2023-07-20T00:45:10;5.25;;;4.13;;
20880;SDS011;10600;53.096;8.802;2023-07-20T00:46:11;8.07;;;3.90;;
20880;SDS011;10600;53.096;8.802;2023-07-20T00:47:12;8.98;;;5.13;;
20880;SDS011;10600;53.096;8.802;2023-07-20T00:48:13;7.85;;;4.78;;
20880;SDS011;10600;53.096;8.802;2023-07-20T00:49:18;9.95;;;5.35;;
20880;SDS011;10600;53.096;8.802;2023-07-20T00:50:21;10.00;;;5.88;;
20880;SDS011;10600;53.096;8.802;2023-07-20T00:51:35;11.40;;;5.30;;
20880;SDS011;10600;53.096;8.802;2023-07-20T00:52:36;8.65;;;4.53;;
20880;SDS011;10600;53.096;8.802;2023-07-20T00:53:46;7.03;;;4.55;;
20880;SDS011;10600;53.096;8.802;2023-07-20T00:54:56;7.70;;;4.68;;
20880;SDS011;10600;53.096;8.802;2023-07-20T00:55:57;11.27;;;6.47;;
20880;SDS011;10600;53.096;8.802;2023-07-20T00:57:08;8.18;;;6.18;;
20880;SDS011;10600;53.096;8.802;2023-07-20T00:58:10;8.73;;;5.80;;
20880;SDS011;10600;53.096;8.802;2023-07-20T00:59:11;6.20;;;5.53;;
20880;SDS011;10600;53.096;8.802;2023-07-20T01:00:15;8.15;;;5.45;;
20880;SDS011;10600;53.096;8.802;2023-07-20T01:01:17;8.90;;;5.65;;
20880;SDS011;10600;53.096;8.802;2023-07-20T01:02:18;7.22;;;5.63;;
20880;SDS011;10600;53.096;8.802;2023-07-20T01:03:19;7.78;;;4.78;;
20880;SDS011;10600;53.096;8.802;2023-07-20T01:04:21;8.30;;;5.15;;
20880;SDS011;10600;53.096;8.802;2023-07-20T01:05:22;9.32;;;5.93;;
20880;SDS011;10600;53.096;8.802;2023-07-20T01:07:32;11.13;;;6.88;;
20880;SDS011;10600;53.096;8.802;2023-07-20T01:08:40;9.52;;;6.90;;
20880;SDS011;10600;53.096;8.802;2023-07-20T01:09:48;14.77;;;8.27;;
20880;SDS011;10600;53.096;8.802;2023-07-20T01:10:52;14.63;;;9.27;;
20880;SDS011;10600;53.096;8.802;2023-07-20T01:12:56;13.30;;;7.55;;
20880;SDS011;10600;53.096;8.802;2023-07-20T01:13:57;13.70;;;6.90;;
20880;SDS011;10600;53.096;8.802;2023-07-20T01:14:58;13.68;;;8.07;;
20880;SDS011;10600;53.096;8.802;2023-07-20T01:16:02;7.28;;;5.03;;
20880;SDS011;10600;53.096;8.802;2023-07-20T01:17:03;8.80;;;5.75;;
20880;SDS011;10600;53.096;8.802;2023-07-20T01:18:04;6.57;;;4.30;;
20880;SDS011;10600;53.096;8.802;2023-07-20T01:19:15;6.55;;;5.43;;
20880;SDS011;10600;53.096;8.802;2023-07-20T01:20:16;10.10;;;4.65;;
20880;SDS011;10600;53.096;8.802;2023-07-20T01:22:52;4.80;;;4.25;;
20880;SDS011;10600;53.096;8.802;2023-07-20T01:27:46;5.82;;;4.90;;
20880;SDS011;10600;53.096;8.802;2023-07-20T01:29:11;6.78;;;5.00;;
20880;SDS011;10600;53.096;8.802;2023-07-20T01:31:24;7.15;;;4.78;;
20880;SDS011;10600;53.096;8.802;2023-07-20T01:32:25;8.23;;;5.35;;
20880;SDS011;10600;53.096;8.802;2023-07-20T01:33:27;7.20;;;5.70;;
20880;SDS011;10600;53.096;8.802;2023-07-20T01:34:29;7.65;;;5.20;;
20880;SDS011;10600;53.096;8.802;2023-07-20T01:35:30;6.53;;;5.20;;
20880;SDS011;10600;53.096;8.802;2023-07-20T01:36:36;7.40;;;6.00;;
20880;SDS011;10600;53.096;8.802;2023-07-20T01:37:38;8.15;;;5.80;;
20880;SDS011;10600;53.096;8.802;2023-07-20T01:38:40;6.97;;;5.90;;
20880;SDS011;10600;53.096;8.802;2023-07-20T01:39:41;7.70;;;5.95;;
20880;SDS011;10600;53.096;8.802;2023-07-20T01:40:42;6.75;;;5.35;;
20880;SDS011;10600;53.096;8.802;2023-07-20T01:41:46;6.85;;;5.65;;
20880;SDS011;10600;53.096;8.802;2023-07-20T01:42:50;8.52;;;5.82;;
20880;SDS011;10600;53.096;8.802;2023-07-20T01:43:51;8.98;;;5.75;;
20880;SDS011;10600;53.096;8.802;2023-07-20T01:44:52;9.98;;;6.75;;
20880;SDS011;10600;53.096;8.802;2023-07-20T01:45:54;9.02;;;6.20;;
20880;SDS011;10600;53.096;8.802;2023-07-20T01:46:55;8.95;;;6.05;;
20880;SDS011;10600;53.096;8.802;2023-07-20T01:47:56;8.13;;;6.30;;
20880;SDS011;10600;53.096;8.802;2023-07-20T01:48:57;7.00;;;5.80;;
20880;SDS011;10600;53.096;8.802;2023-07-20T01:49:58;7.47;;;4.93;;
20880;SDS011;10600;53.096;8.802;2023-07-20T01:50:59;7.18;;;5.25;;
20880;SDS011;10600;53.096;8.802;2023-07-20T01:52:00;6.55;;;5.72;;
20880;SDS011;10600;53.096;8.802;2023-07-20T01:53:05;6.75;;;4.82;;
20880;SDS011;10600;53.096;8.802;2023-07-20T01:54:09;8.18;;;6.07;;
20880;SDS011;10600;53.096;8.802;2023-07-20T01:55:13;6.82;;;4.65;;
20880;SDS011;10600;53.096;8.802;2023-07-20T01:56:19;5.45;;;4.30;;
20880;SDS011;10600;53.096;8.802;2023-07-20T01:57:23;9.23;;;6.00;;
20880;SDS011;10600;53.096;8.802;2023-07-20T01:58:24;5.85;;;2.67;;
20880;SDS011;10600;53.096;8.802;2023-07-20T01:59:25;6.45;;;4.18;;
20880;SDS011;10600;53.096;8.802;2023-07-20T02:00:26;7.38;;;5.68;;
20880;SDS011;10600;53.096;8.802;2023-07-20T02:01:27;7.78;;;5.38;;
20880;SDS011;10600;53.096;8.802;2023-07-20T02:02:28;10.98;;;7.30;;
20880;SDS011;10600;53.096;8.802;2023-07-20T02:03:29;11.50;;;7.90;;
20880;SDS011;10600;53.096;8.802;2023-07-20T02:04:31;13.63;;;8.57;;
20880;SDS011;10600;53.096;8.802;2023-07-20T02:05:32;12.93;;;8.60;;
20880;SDS011;10600;53.096;8.802;2023-07-20T02:06:33;13.13;;;9.00;;
20880;SDS011;10600;53.096;8.802;2023-07-20T02:07:34;13.80;;;9.15;;
20880;SDS011;10600;53.096;8.802;2023-07-20T02:08:35;14.85;;;9.75;;
20880;SDS011;10600;53.096;8.802;2023-07-20T02:09:36;14.45;;;8.00;;
20880;SDS011;10600;53.096;8.802;2023-07-20T02:10:37;11.32;;;6.50;;
20880;SDS011;10600;53.096;8.802;2023-07-20T02:11:38;11.10;;;7.28;;
20880;SDS011;10600;53.096;8.802;2023-07-20T02:12:39;11.27;;;8.20;;
20880;SDS011;10600;53.096;8.802;2023-07-20T02:13:40;11.07;;;7.63;;
20880;SDS011;10600;53.096;8.802;2023-07-20T02:14:41;8.63;;;5.82;;
20880;SDS011;10600;53.096;8.802;2023-07-20T02:15:42;9.60;;;6.50;;
20880;SDS011;10600;53.096;8.802;2023-07-20T02:16:43;9.15;;;7.00;;
20880;SDS011;10600;53.096;8.802;2023-07-20T02:17:44;7.55;;;5.50;;
20880;SDS011;10600;53.096;8.802;2023-07-20T02:18:46;5.20;;;3.90;;
20880;SDS011;10600;53.096;8.802;2023-07-20T02:19:50;5.60;;;5.00;;
20880;SDS011;10600;53.096;8.802;2023-07-20T02:20:52;6.07;;;4.75;;
20880;SDS011;10600;53.096;8.802;2023-07-20T02:21:56;5.63;;;3.70;;
20880;SDS011;10600;53.096;8.802;2023-07-20T02:22:58;5.25;;;3.72;;
20880;SDS011;10600;53.096;8.802;2023-07-20T02:24:00;4.60;;;4.05;;
20880;SDS011;10600;53.096;8.802;2023-07-20T02:25:00;3.95;;;3.20;;
20880;SDS011;10600;53.096;8.802;2023-07-20T02:26:01;5.55;;;3.78;;
20880;SDS011;10600;53.096;8.802;2023-07-20T02:27:02;3.50;;;2.90;;
20880;SDS011;10600;53.096;8.802;2023-07-20T02:28:04;6.15;;;3.22;;
20880;SDS011;10600;53.096;8.802;2023-07-20T02:29:05;4.53;;;3.17;;
20880;SDS011;10600;53.096;8.802;2023-07-20T02:30:07;3.95;;;2.95;;
20880;SDS011;10600;53.096;8.802;2023-07-20T02:31:09;5.35;;;3.45;;
20880;SDS011;10600;53.096;8.802;2023-07-20T02:32:10;4.78;;;3.33;;
20880;SDS011;10600;53.096;8.802;2023-07-20T02:33:11;4.35;;;3.05;;
20880;SDS011;10600;53.096;8.802;2023-07-20T02:34:12;6.47;;;3.70;;
20880;SDS011;10600;53.096;8.802;2023-07-20T02:35:13;5.10;;;3.80;;
20880;SDS011;10600;53.096;8.802;2023-07-20T02:36:14;5.03;;;3.33;;
20880;SDS011;10600;53.096;8.802;2023-07-20T02:37:16;3.67;;;3.25;;
20880;SDS011;10600;53.096;8.802;2023-07-20T02:38:21;3.63;;;2.95;;
20880;SDS011;10600;53.096;8.802;2023-07-20T02:40:10;4.40;;;3.53;;
20880;SDS011;10600;53.096;8.802;2023-07-20T02:41:12;4.68;;;3.10;;
20880;SDS011;10600;53.096;8.802;2023-07-20T02:42:13;3.70;;;3.00;;
20880;SDS011;10600;53.096;8.802;2023-07-20T02:43:14;4.05;;;3.47;;
20880;SDS011;10600;53.096;8.802;2023-07-20T02:44:15;5.53;;;4.00;;
20880;SDS011;10600;53.096;8.802;2023-07-20T02:45:16;4.72;;;3.88;;
20880;SDS011;10600;53.096;8.802;2023-07-20T02:46:17;4.25;;;3.53;;
20880;SDS011;10600;53.096;8.802;2023-07-20T02:47:18;4.28;;;3.80;;
20880;SDS011;10600;53.096;8.802;2023-07-20T02:48:19;4.15;;;3.75;;
20880;SDS011;10600;53.096;8.802;2023-07-20T02:49:23;4.63;;;3.95;;
20880;SDS011;10600;53.096;8.802;2023-07-20T02:50:24;6.55;;;4.82;;
20880;SDS011;10600;53.096;8.802;2023-07-20T02:51:26;5.25;;;4.18;;
20880;SDS011;10600;53.096;8.802;2023-07-20T02:52:27;9.55;;;5.53;;
20880;SDS011;10600;53.096;8.802;2023-07-20T02:53:29;10.45;;;6.82;;
20880;SDS011;10600;53.096;8.802;2023-07-20T02:54:30;8.18;;;5.78;;
20880;SDS011;10600;53.096;8.802;2023-07-20T02:55:31;10.20;;;6.85;;
20880;SDS011;10600;53.096;8.802;2023-07-20T02:56:32;10.43;;;6.55;;
20880;SDS011;10600;53.096;8.802;2023-07-20T02:57:33;8.73;;;6.53;;
20880;SDS011;10600;53.096;8.802;2023-07-20T02:58:34;10.18;;;7.45;;
20880;SDS011;10600;53.096;8.802;2023-07-20T02:59:38;7.90;;;6.50;;
20880;SDS011;10600;53.096;8.802;2023-07-20T03:00:39;8.75;;;6.88;;
20880;SDS011;10600;53.096;8.802;2023-07-20T03:01:43;11.55;;;6.85;;
20880;SDS011;10600;53.096;8.802;2023-07-20T03:02:44;9.15;;;6.63;;
20880;SDS011;10600;53.096;8.802;2023-07-20T03:03:47;8.95;;;6.47;;
20880;SDS011;10600;53.096;8.802;2023-07-20T03:04:48;8.80;;;6.60;;
20880;SDS011;10600;53.096;8.802;2023-07-20T03:05:49;7.95;;;6.72;;
20880;SDS011;10600;53.096;8.802;2023-07-20T03:06:54;7.78;;;6.45;;
20880;SDS011;10600;53.096;8.802;2023-07-20T03:07:55;12.27;;;7.35;;
20880;SDS011;10600;53.096;8.802;2023-07-20T03:08:56;10.43;;;7.55;;
20880;SDS011;10600;53.096;8.802;2023-07-20T03:09:57;8.20;;;6.53;;
20880;SDS011;10600;53.096;8.802;2023-07-20T03:10:59;10.57;;;7.22;;
20880;SDS011;10600;53.096;8.802;2023-07-20T03:12:00;10.60;;;7.30;;
20880;SDS011;10600;53.096;8.802;2023-07-20T03:13:01;10.18;;;7.85;;
20880;SDS011;10600;53.096;8.802;2023-07-20T03:14:02;11.48;;;9.10;;
20880;SDS011;10600;53.096;8.802;2023-07-20T03:15:03;11.18;;;8.82;;
20880;SDS011;10600;53.096;8.802;2023-07-20T03:16:05;9.65;;;8.43;;
20880;SDS011;10600;53.096;8.802;2023-07-20T03:17:11;13.20;;;8.27;;
20880;SDS011;10600;53.096;8.802;2023-07-20T03:18:12;14.57;;;9.05;;
20880;SDS011;10600;53.096;8.802;2023-07-20T03:19:13;14.05;;;9.57;;
20880;SDS011;10600;53.096;8.802;2023-07-20T03:20:14;13.13;;;8.65;;
20880;SDS011;10600;53.096;8.802;2023-07-20T03:21:15;15.93;;;11.38;;
20880;SDS011;10600;53.096;8.802;2023-07-20T03:22:16;15.68;;;10.52;;
20880;SDS011;10600;53.096;8.802;2023-07-20T03:23:18;21.25;;;12.50;;
20880;SDS011;10600;53.096;8.802;2023-07-20T03:24:21;16.33;;;12.23;;
20880;SDS011;10600;53.096;8.802;2023-07-20T03:25:23;15.10;;;12.07;;
20880;SDS011;10600;53.096;8.802;2023-07-20T03:26:24;15.95;;;11.65;;
20880;SDS011;10600;53.096;8.802;2023-07-20T03:27:25;15.82;;;11.27;;
20880;SDS011;10600;53.096;8.802;2023-07-20T03:28:26;15.32;;;11.07;;
20880;SDS011;10600;53.096;8.802;2023-07-20T03:29:27;20.55;;;12.13;;
20880;SDS011;10600;53.096;8.802;2023-07-20T03:30:28;17.95;;;11.95;;
20880;SDS011;10600;53.096;8.802;2023-07-20T03:31:29;17.55;;;12.18;;
20880;SDS011;10600;53.096;8.802;2023-07-20T03:32:30;15.95;;;10.88;;
20880;SDS011;10600;53.096;8.802;2023-07-20T03:33:31;16.65;;;12.50;;
20880;SDS011;10600;53.096;8.802;2023-07-20T03:34:33;20.02;;;11.13;;
20880;SDS011;10600;53.096;8.802;2023-07-20T03:35:34;14.85;;;9.52;;
20880;SDS011;10600;53.096;8.802;2023-07-20T03:36:35;20.95;;;12.95;;
20880;SDS011;10600;53.096;8.802;2023-07-20T03:37:36;17.98;;;12.10;;
20880;SDS011;10600;53.096;8.802;2023-07-20T03:38:38;17.23;;;10.48;;
20880;SDS011;10600;53.096;8.802;2023-07-20T03:39:39;17.27;;;11.73;;
20880;SDS011;10600;53.096;8.802;2023-07-20T03:40:48;15.95;;;11.23;;
20880;SDS011;10600;53.096;8.802;2023-07-20T03:41:49;15.15;;;11.32;;
20880;SDS011;10600;53.096;8.802;2023-07-20T03:42:50;17.08;;;12.55;;
20880;SDS011;10600;53.096;8.802;2023-07-20T03:43:51;15.93;;;10.82;;
20880;SDS011;10600;53.096;8.802;2023-07-20T03:44:52;16.40;;;11.00;;
20880;SDS011;10600;53.096;8.802;2023-07-20T03:45:53;15.98;;;10.85;;
20880;SDS011;10600;53.096;8.802;2023-07-20T03:46:54;15.98;;;11.43;;
20880;SDS011;10600;53.096;8.802;2023-07-20T03:47:55;17.35;;;12.20;;
20880;SDS011;10600;53.096;8.802;2023-07-20T03:48:56;14.68;;;10.38;;
20880;SDS011;10600;53.096;8.802;2023-07-20T03:49:57;12.02;;;9.15;;
20880;SDS011;10600;53.096;8.802;2023-07-20T03:50:58;13.85;;;10.50;;
20880;SDS011;10600;53.096;8.802;2023-07-20T03:52:03;15.18;;;10.88;;
20880;SDS011;10600;53.096;8.802;2023-07-20T03:53:04;19.92;;;12.02;;
20880;SDS011;10600;53.096;8.802;2023-07-20T03:54:05;15.27;;;11.98;;
20880;SDS011;10600;53.096;8.802;2023-07-20T03:55:08;17.65;;;12.05;;
20880;SDS011;10600;53.096;8.802;2023-07-20T03:56:09;18.38;;;11.00;;
20880;SDS011;10600;53.096;8.802;2023-07-20T03:57:10;17.77;;;12.05;;
20880;SDS011;10600;53.096;8.802;2023-07-20T03:58:11;16.20;;;10.77;;
20880;SDS011;10600;53.096;8.802;2023-07-20T03:59:12;16.25;;;11.50;;
20880;SDS011;10600;53.096;8.802;2023-07-20T04:00:13;17.35;;;10.75;;
20880;SDS011;10600;53.096;8.802;2023-07-20T04:01:14;16.40;;;11.07;;
20880;SDS011;10600;53.096;8.802;2023-07-20T04:02:16;15.70;;;10.48;;
20880;SDS011;10600;53.096;8.802;2023-07-20T04:03:18;15.00;;;11.50;;
20880;SDS011;10600;53.096;8.802;2023-07-20T04:04:19;14.50;;;10.75;;
20880;SDS011;10600;53.096;8.802;2023-07-20T04:05:23;11.32;;;7.90;;
20880;SDS011;10600;53.096;8.802;2023-07-20T04:06:25;12.75;;;11.00;;
20880;SDS011;10600;53.096;8.802;2023-07-20T04:07:26;12.23;;;9.00;;
20880;SDS011;10600;53.096;8.802;2023-07-20T04:08:27;14.93;;;10.20;;
20880;SDS011;10600;53.096;8.802;2023-07-20T04:09:31;14.07;;;10.52;;
20880;SDS011;10600;53.096;8.802;2023-07-20T04:10:32;17.10;;;10.15;;
20880;SDS011;10600;53.096;8.802;2023-07-20T04:11:33;13.07;;;10.15;;
20880;SDS011;10600;53.096;8.802;2023-07-20T04:12:35;12.75;;;9.05;;
20880;SDS011;10600;53.096;8.802;2023-07-20T04:13:36;12.35;;;8.57;;
20880;SDS011;10600;53.096;8.802;2023-07-20T04:14:37;14.60;;;9.63;;
20880;SDS011;10600;53.096;8.802;2023-07-20T04:15:38;12.57;;;8.85;;
20880;SDS011;10600;53.096;8.802;2023-07-20T04:16:39;14.02;;;9.23;;
20880;SDS011;10600;53.096;8.802;2023-07-20T04:17:40;12.48;;;8.38;;
20880;SDS011;10600;53.096;8.802;2023-07-20T04:18:41;10.93;;;8.30;;
20880;SDS011;10600;53.096;8.802;2023-07-20T04:19:42;13.13;;;8.13;;
20880;SDS011;10600;53.096;8.802;2023-07-20T04:20:43;11.88;;;8.02;;
20880;SDS011;10600;53.096;8.802;2023-07-20T04:21:44;12.45;;;8.52;;
20880;SDS011;10600;53.096;8.802;2023-07-20T04:22:45;16.95;;;8.80;;
20880;SDS011;10600;53.096;8.802;2023-07-20T04:23:46;13.75;;;8.18;;
20880;SDS011;10600;53.096;8.802;2023-07-20T04:24:47;12.45;;;9.07;;
20880;SDS011;10600;53.096;8.802;2023-07-20T04:25:48;14.52;;;9.25;;
20880;SDS011;10600;53.096;8.802;2023-07-20T04:26:49;13.48;;;8.82;;
20880;SDS011;10600;53.096;8.802;2023-07-20T04:27:50;12.45;;;8.73;;
20880;SDS011;10600;53.096;8.802;2023-07-20T04:28:55;13.32;;;9.10;;
20880;SDS011;10600;53.096;8.802;2023-07-20T04:29:57;12.88;;;9.00;;
20880;SDS011;10600;53.096;8.802;2023-07-20T04:31:12;14.30;;;10.60;;
20880;SDS011;10600;53.096;8.802;2023-07-20T04:32:13;12.43;;;9.52;;
20880;SDS011;10600;53.096;8.802;2023-07-20T04:33:14;14.05;;;10.43;;
20880;SDS011;10600;53.096;8.802;2023-07-20T04:34:15;16.13;;;10.05;;
20880;SDS011;10600;53.096;8.802;2023-07-20T04:36:26;13.82;;;9.52;;
20880;SDS011;10600;53.096;8.802;2023-07-20T04:37:27;14.07;;;8.88;;
20880;SDS011;10600;53.096;8.802;2023-07-20T04:38:28;13.55;;;9.90;;
20880;SDS011;10600;53.096;8.802;2023-07-20T04:39:29;10.85;;;8.15;;
20880;SDS011;10600;53.096;8.802;2023-07-20T04:40:30;12.68;;;9.63;;
20880;SDS011;10600;53.096;8.802;2023-07-20T04:41:34;12.98;;;9.52;;
20880;SDS011;10600;53.096;8.802;2023-07-20T04:42:45;9.52;;;8.15;;
20880;SDS011;10600;53.096;8.802;2023-07-20T04:43:46;10.65;;;7.40;;
20880;SDS011;10600;53.096;8.802;2023-07-20T04:44:47;12.60;;;9.07;;
20880;SDS011;10600;53.096;8.802;2023-07-20T04:45:49;11.85;;;8.05;;
20880;SDS011;10600;53.096;8.802;2023-07-20T04:46:51;12.93;;;8.27;;
20880;SDS011;10600;53.096;8.802;2023-07-20T04:49:57;11.35;;;8.63;;
20880;SDS011;10600;53.096;8.802;2023-07-20T04:51:34;18.25;;;8.32;;
20880;SDS011;10600;53.096;8.802;2023-07-20T04:52:35;13.43;;;8.65;;
20880;SDS011;10600;53.096;8.802;2023-07-20T04:53:36;12.38;;;8.73;;
20880;SDS011;10600;53.096;8.802;2023-07-20T04:54:37;12.52;;;8.35;;
20880;SDS011;10600;53.096;8.802;2023-07-20T04:55:49;10.63;;;7.85;;
20880;SDS011;10600;53.096;8.802;2023-07-20T04:56:51;16.08;;;8.77;;
20880;SDS011;10600;53.096;8.802;2023-07-20T04:57:53;11.73;;;8.32;;
20880;SDS011;10600;53.096;8.802;2023-07-20T04:58:57;12.85;;;9.38;;
20880;SDS011;10600;53.096;8.802;2023-07-20T04:59:58;14.80;;;9.43;;
20880;SDS011;10600;53.096;8.802;2023-07-20T05:00:59;13.65;;;9.05;;
20880;SDS011;10600;53.096;8.802;2023-07-20T05:02:03;13.13;;;8.55;;
20880;SDS011;10600;53.096;8.802;2023-07-20T05:03:04;14.63;;;8.95;;
20880;SDS011;10600;53.096;8.802;2023-07-20T05:04:05;13.48;;;9.45;;
20880;SDS011;10600;53.096;8.802;2023-07-20T05:05:06;13.43;;;9.10;;
20880;SDS011;10600;53.096;8.802;2023-07-20T05:06:07;12.88;;;9.45;;
20880;SDS011;10600;53.096;8.802;2023-07-20T05:07:08;11.68;;;8.88;;
20880;SDS011;10600;53.096;8.802;2023-07-20T05:08:09;13.35;;;8.40;;
20880;SDS011;10600;53.096;8.802;2023-07-20T05:09:10;13.65;;;9.45;;
20880;SDS011;10600;53.096;8.802;2023-07-20T05:10:11;10.35;;;6.88;;
20880;SDS011;10600;53.096;8.802;2023-07-20T05:11:12;11.95;;;8.10;;
20880;SDS011;10600;53.096;8.802;2023-07-20T05:12:13;14.30;;;8.27;;
20880;SDS011;10600;53.096;8.802;2023-07-20T05:13:14;11.57;;;7.45;;
20880;SDS011;10600;53.096;8.802;2023-07-20T05:14:15;10.32;;;7.68;;
20880;SDS011;10600;53.096;8.802;2023-07-20T05:15:16;10.30;;;7.07;;
20880;SDS011;10600;53.096;8.802;2023-07-20T05:16:17;14.18;;;8.73;;
20880;SDS011;10600;53.096;8.802;2023-07-20T05:17:18;10.80;;;7.70;;
20880;SDS011;10600;53.096;8.802;2023-07-20T05:18:20;14.65;;;7.78;;
20880;SDS011;10600;53.096;8.802;2023-07-20T05:19:21;11.02;;;7.63;;
20880;SDS011;10600;53.096;8.802;2023-07-20T05:20:22;12.52;;;8.68;;
20880;SDS011;10600;53.096;8.802;2023-07-20T05:21:24;8.85;;;7.45;;
20880;SDS011;10600;53.096;8.802;2023-07-20T05:22:25;12.68;;;8.48;;
20880;SDS011;10600;53.096;8.802;2023-07-20T05:23:26;9.57;;;7.63;;
20880;SDS011;10600;53.096;8.802;2023-07-20T05:24:27;16.27;;;8.60;;
20880;SDS011;10600;53.096;8.802;2023-07-20T05:25:28;12.32;;;9.00;;
20880;SDS011;10600;53.096;8.802;2023-07-20T05:26:29;9.57;;;7.78;;
20880;SDS011;10600;53.096;8.802;2023-07-20T05:27:30;15.75;;;8.25;;
20880;SDS011;10600;53.096;8.802;2023-07-20T05:28:31;14.98;;;7.85;;
20880;SDS011;10600;53.096;8.802;2023-07-20T05:29:32;12.25;;;7.47;;
20880;SDS011;10600;53.096;8.802;2023-07-20T05:30:33;10.40;;;7.30;;
20880;SDS011;10600;53.096;8.802;2023-07-20T05:31:34;10.07;;;6.50;;
20880;SDS011;10600;53.096;8.802;2023-07-20T05:32:35;10.10;;;5.35;;
20880;SDS011;10600;53.096;8.802;2023-07-20T05:33:36;8.13;;;6.30;;
20880;SDS011;10600;53.096;8.802;2023-07-20T05:34:37;6.78;;;5.07;;
20880;SDS011;10600;53.096;8.802;2023-07-20T05:35:38;16.55;;;5.70;;
20880;SDS011;10600;53.096;8.802;2023-07-20T05:36:39;5.75;;;4.00;;
20880;SDS011;10600;53.096;8.802;2023-07-20T05:37:40;6.97;;;5.13;;
20880;SDS011;10600;53.096;8.802;2023-07-20T05:38:41;6.28;;;5.50;;
20880;SDS011;10600;53.096;8.802;2023-07-20T05:39:42;10.80;;;5.65;;
20880;SDS011;10600;53.096;8.802;2023-07-20T05:40:43;9.48;;;4.90;;
20880;SDS011;10600;53.096;8.802;2023-07-20T05:41:45;12.25;;;5.68;;
20880;SDS011;10600;53.096;8.802;2023-07-20T05:42:46;11.25;;;5.65;;
20880;SDS011;10600;53.096;8.802;2023-07-20T05:43:48;10.15;;;5.47;;
20880;SDS011;10600;53.096;8.802;2023-07-20T05:44:49;8.30;;;4.95;;
20880;SDS011;10600;53.096;8.802;2023-07-20T05:45:52;9.32;;;5.65;;
20880;SDS011;10600;53.096;8.802;2023-07-20T05:46:53;10.27;;;5.90;;
20880;SDS011;10600;53.096;8.802;2023-07-20T05:47:55;12.73;;;5.45;;
20880;SDS011;10600;53.096;8.802;2023-07-20T05:48:56;11.05;;;5.25;;
20880;SDS011;10600;53.096;8.802;2023-07-20T05:49:57;9.93;;;5.63;;
20880;SDS011;10600;53.096;8.802;2023-07-20T05:50:58;9.68;;;5.05;;
20880;SDS011;10600;53.096;8.802;2023-07-20T05:51:59;11.75;;;5.18;;
20880;SDS011;10600;53.096;8.802;2023-07-20T05:53:01;11.45;;;5.30;;
20880;SDS011;10600;53.096;8.802;2023-07-20T05:54:02;8.25;;;4.75;;
20880;SDS011;10600;53.096;8.802;2023-07-20T05:55:03;7.50;;;4.30;;
20880;SDS011;10600;53.096;8.802;2023-07-20T05:56:04;8.45;;;3.97;;
20880;SDS011;10600;53.096;8.802;2023-07-20T05:57:05;7.22;;;4.03;;
20880;SDS011;10600;53.096;8.802;2023-07-20T05:58:06;6.35;;;4.35;;
20880;SDS011;10600;53.096;8.802;2023-07-20T05:59:07;9.93;;;4.00;;
20880;SDS011;10600;53.096;8.802;2023-07-20T06:00:08;6.70;;;3.85;;
20880;SDS011;10600;53.096;8.802;2023-07-20T06:01:09;5.90;;;3.38;;
20880;SDS011;10600;53.096;8.802;2023-07-20T06:02:11;7.55;;;3.42;;
20880;SDS011;10600;53.096;8.802;2023-07-20T06:03:12;11.35;;;4.47;;
20880;SDS011;10600;53.096;8.802;2023-07-20T06:04:13;6.63;;;4.32;;
20880;SDS011;10600;53.096;8.802;2023-07-20T06:05:14;12.20;;;4.72;;
20880;SDS011;10600;53.096;8.802;2023-07-20T06:06:15;7.53;;;4.55;;
20880;SDS011;10600;53.096;8.802;2023-07-20T06:07:16;14.23;;;5.53;;
20880;SDS011;10600;53.096;8.802;2023-07-20T06:08:17;10.52;;;4.50;;
20880;SDS011;10600;53.096;8.802;2023-07-20T06:09:18;7.72;;;3.83;;
20880;SDS011;10600;53.096;8.802;2023-07-20T06:10:19;16.05;;;5.35;;
20880;SDS011;10600;53.096;8.802;2023-07-20T06:11:20;10.45;;;4.43;;
20880;SDS011;10600;53.096;8.802;2023-07-20T06:12:21;6.43;;;3.65;;
20880;SDS011;10600;53.096;8.802;2023-07-20T06:13:22;9.43;;;3.88;;
20880;SDS011;10600;53.096;8.802;2023-07-20T06:14:23;4.15;;;3.35;;
20880;SDS011;10600;53.096;8.802;2023-07-20T06:15:33;9.13;;;4.03;;
20880;SDS011;10600;53.096;8.802;2023-07-20T06:16:35;6.00;;;3.63;;
20880;SDS011;10600;53.096;8.802;2023-07-20T06:17:36;5.35;;;3.00;;
20880;SDS011;10600;53.096;8.802;2023-07-20T06:18:37;6.70;;;3.15;;
20880;SDS011;10600;53.096;8.802;2023-07-20T06:19:38;5.43;;;3.67;;
20880;SDS011;10600;53.096;8.802;2023-07-20T06:20:39;3.95;;;2.78;;
20880;SDS011;10600;53.096;8.802;2023-07-20T06:21:40;6.65;;;2.60;;